Time;durP1;ratioP1;P1;durP2;ratioP2;P2;SDS_P1;SDS_P2;PMS_P1;PMS_P2;Temp;Humidity;BMP_temperature;BMP_pressure;BME280_temperature;BME280_humidity;BME280_pressure;Samples;Min_cycle;Max_cycle;Signal;HPM_P1;HPM_P2
2023/11/19 06:00:51;;;;;;;0.83;0.73;;;;;;;;;;5788501;23;20517;-70
2023/11/19 06:03:17;;;;;;;0.73;0.63;;;;;;;;;;4960427;28;20493;-71
2023/11/19 06:05:46;;;;;;;1.03;1.03;;;;;;;;;;4952892;29;20469;-73
2023/11/19 06:08:12;;;;;;;0.80;0.70;;;;;;;;;;4939312;29;20425;-71
2023/11/19 06:10:39;;;;;;;0.90;0.80;;;;;;;;;;4938766;29;20445;-71
2023/11/19 06:13:05;;;;;;;0.93;0.90;;;;;;;;;;4938609;29;20405;-71
2023/11/19 06:15:33;;;;;;;1.07;0.90;;;;;;;;;;4938146;29;20410;-71
2023/11/19 06:18:03;;;;;;;1.80;0.80;;;;;;;;;;4937371;29;20441;-71
2023/11/19 06:20:29;;;;;;;0.90;0.80;;;;;;;;;;4937973;29;20441;-71
2023/11/19 06:22:55;;;;;;;0.63;0.60;;;;;;;;;;4937917;29;20469;-71
2023/11/19 06:25:21;;;;;;;0.73;0.63;;;;;;;;;;4937390;29;20465;-71
2023/11/19 06:27:47;;;;;;;2.00;0.60;;;;;;;;;;4937837;29;20794;-71
2023/11/19 06:30:13;;;;;;;0.90;0.80;;;;;;;;;;4937696;29;20457;-71
2023/11/19 06:32:39;;;;;;;2.07;0.83;;;;;;;;;;4937806;29;20508;-72
2023/11/19 06:35:06;;;;;;;3.10;0.87;;;;;;;;;;4937634;29;20443;-71
2023/11/19 06:37:32;;;;;;;0.83;0.77;;;;;;;;;;4937643;29;20417;-71
2023/11/19 06:39:58;;;;;;;0.80;0.70;;;;;;;;;;4938071;29;20414;-71
2023/11/19 06:42:24;;;;;;;0.97;0.80;;;;;;;;;;4937507;29;20527;-71
2023/11/19 06:44:50;;;;;;;2.33;0.90;;;;;;;;;;4936580;29;20433;-71
2023/11/19 06:47:15;;;;;;;0.83;0.77;;;;;;;;;;4927950;29;20463;-71
2023/11/19 06:49:44;;;;;;;0.73;0.70;;;;;;;;;;4928609;29;20494;-71
2023/11/19 06:52:10;;;;;;;2.20;0.73;;;;;;;;;;4927622;29;20434;-71
2023/11/19 06:54:36;;;;;;;0.80;0.70;;;;;;;;;;4927733;29;20421;-71
2023/11/19 06:57:02;;;;;;;0.90;0.80;;;;;;;;;;4925466;29;20407;-71
2023/11/19 06:59:29;;;;;;;1.97;1.20;;;;;;;;;;4921544;29;20471;-71
2023/11/19 07:01:55;;;;;;;2.43;1.50;;;;;;;;;;4918618;29;20461;-71
2023/11/19 07:04:22;;;;;;;0.90;0.80;;;;;;;;;;4918430;29;20422;-71
2023/11/19 07:06:49;;;;;;;0.80;0.70;;;;;;;;;;4918051;29;20418;-72
2023/11/19 07:09:15;;;;;;;0.90;0.80;;;;;;;;;;4918070;29;20462;-71
2023/11/19 07:11:41;;;;;;;0.90;0.80;;;;;;;;;;4936937;29;20436;-71
2023/11/19 07:14:08;;;;;;;3.17;1.13;;;;;;;;;;4935785;29;20989;-71
2023/11/19 07:16:34;;;;;;;0.70;0.60;;;;;;;;;;4936697;29;20406;-74
2023/11/19 07:19:05;;;;;;;2.60;0.80;;;;;;;;;;4935737;29;20770;-71
2023/11/19 07:21:30;;;;;;;1.07;1.00;;;;;;;;;;4936898;29;20438;-71
2023/11/19 07:23:57;;;;;;;1.07;0.60;;;;;;;;;;4936653;29;20443;-71
2023/11/19 07:26:23;;;;;;;0.90;0.80;;;;;;;;;;4936900;29;20418;-72
2023/11/19 07:28:49;;;;;;;1.70;0.97;;;;;;;;;;4936816;29;20513;-71
2023/11/19 07:31:15;;;;;;;1.70;0.73;;;;;;;;;;4936533;29;20433;-71
2023/11/19 07:33:44;;;;;;;5.00;0.80;;;;;;;;;;4935349;29;20422;-72
2023/11/19 07:36:10;;;;;;;0.87;0.80;;;;;;;;;;4936710;29;20428;-71
2023/11/19 07:38:36;;;;;;;0.80;0.70;;;;;;;;;;4924632;29;20529;-71
2023/11/19 07:41:03;;;;;;;0.80;0.70;;;;;;;;;;4917512;29;20482;-71
2023/11/19 07:43:28;;;;;;;0.80;0.70;;;;;;;;;;4917682;29;20425;-70
2023/11/19 07:45:54;;;;;;;0.83;0.73;;;;;;;;;;4917030;29;20422;-72
2023/11/19 07:48:23;;;;;;;1.27;0.80;;;;;;;;;;4933281;29;20430;-72
2023/11/19 07:50:52;;;;;;;1.20;1.10;;;;;;;;;;4936364;29;20430;-72
2023/11/19 07:53:19;;;;;;;1.60;0.77;;;;;;;;;;4936412;29;20497;-72
2023/11/19 07:55:44;;;;;;;1.07;1.00;;;;;;;;;;4937405;29;20464;-72
2023/11/19 07:58:11;;;;;;;2.60;1.10;;;;;;;;;;4938779;29;20406;-71
2023/11/19 08:00:37;;;;;;;1.10;1.00;;;;;;;;;;4937180;29;20802;-71
2023/11/19 08:03:04;;;;;;;2.63;0.90;;;;;;;;;;4936329;29;20842;-71
2023/11/19 08:05:30;;;;;;;2.10;1.20;;;;;;;;;;4932962;29;20429;-70
2023/11/19 08:07:56;;;;;;;1.23;1.00;;;;;;;;;;4917108;29;20574;-70
2023/11/19 08:10:22;;;;;;;2.20;0.97;;;;;;;;;;4916406;29;20552;-71
2023/11/19 08:12:48;;;;;;;0.97;0.90;;;;;;;;;;4916354;29;20751;-70
2023/11/19 08:15:15;;;;;;;1.87;1.17;;;;;;;;;;4915264;29;20422;-71
2023/11/19 08:17:42;;;;;;;1.23;0.93;;;;;;;;;;4917005;29;20413;-71
2023/11/19 08:20:10;;;;;;;1.47;1.07;;;;;;;;;;4916840;29;20561;-73
2023/11/19 08:22:37;;;;;;;0.93;0.87;;;;;;;;;;4917000;29;20937;-71
2023/11/19 08:25:04;;;;;;;2.30;1.17;;;;;;;;;;4916741;29;20418;-71
2023/11/19 08:27:30;;;;;;;1.43;1.20;;;;;;;;;;4916456;29;20426;-71
2023/11/19 08:29:56;;;;;;;2.97;0.90;;;;;;;;;;4916675;29;20814;-70
2023/11/19 08:32:23;;;;;;;4.50;1.07;;;;;;;;;;4916368;29;20434;-71
2023/11/19 08:34:49;;;;;;;1.00;0.90;;;;;;;;;;4924133;29;20443;-71
2023/11/19 08:37:17;;;;;;;1.50;1.03;;;;;;;;;;4916150;29;20494;-70
2023/11/19 08:39:43;;;;;;;1.40;1.03;;;;;;;;;;4917157;29;20422;-71
2023/11/19 08:42:09;;;;;;;1.80;1.10;;;;;;;;;;4916340;29;20479;-71
2023/11/19 08:44:35;;;;;;;1.47;0.90;;;;;;;;;;4915634;29;20477;-70
2023/11/19 08:47:01;;;;;;;1.60;1.33;;;;;;;;;;4925605;29;20457;-71
2023/11/19 08:49:27;;;;;;;1.20;1.10;;;;;;;;;;4935325;29;20476;-71
2023/11/19 08:51:53;;;;;;;1.70;1.37;;;;;;;;;;4935189;29;20496;-71
2023/11/19 08:54:21;;;;;;;3.30;1.30;;;;;;;;;;4934917;29;20440;-71
2023/11/19 08:56:47;;;;;;;3.17;2.30;;;;;;;;;;4933360;29;20927;-72
2023/11/19 08:59:13;;;;;;;1.87;1.77;;;;;;;;;;4935305;29;20508;-72
2023/11/19 09:01:39;;;;;;;1.30;1.20;;;;;;;;;;4924999;29;20966;-72
2023/11/19 09:04:06;;;;;;;2.03;1.63;;;;;;;;;;4915020;29;20437;-72
2023/11/19 09:06:32;;;;;;;2.20;1.20;;;;;;;;;;4924170;29;20448;-72
2023/11/19 09:09:01;;;;;;;1.17;1.10;;;;;;;;;;4935058;29;20961;-72
2023/11/19 09:11:27;;;;;;;1.17;1.10;;;;;;;;;;4933755;29;20818;-72
2023/11/19 09:13:53;;;;;;;2.50;1.43;;;;;;;;;;4935009;29;20448;-72
2023/11/19 09:16:19;;;;;;;2.43;1.27;;;;;;;;;;4934863;29;20424;-73
2023/11/19 09:18:45;;;;;;;1.37;1.00;;;;;;;;;;4935765;29;20414;-73
2023/11/19 09:21:12;;;;;;;1.57;1.03;;;;;;;;;;4933891;29;20434;-73
2023/11/19 09:23:39;;;;;;;1.40;1.00;;;;;;;;;;4936131;29;20516;-72
2023/11/19 09:26:05;;;;;;;1.30;1.20;;;;;;;;;;4937137;29;20418;-72
2023/11/19 09:28:31;;;;;;;3.27;1.00;;;;;;;;;;4935937;29;20429;-73
2023/11/19 09:30:58;;;;;;;2.00;0.97;;;;;;;;;;4934902;29;20470;-73
2023/11/19 09:33:24;;;;;;;2.90;1.00;;;;;;;;;;4933553;29;20422;-73
2023/11/19 09:35:50;;;;;;;1.23;0.80;;;;;;;;;;4915704;29;20500;-73
2023/11/19 09:38:16;;;;;;;3.23;1.30;;;;;;;;;;4915989;29;20974;-73
2023/11/19 09:40:42;;;;;;;1.17;0.80;;;;;;;;;;4916555;29;20454;-73
2023/11/19 09:43:08;;;;;;;2.40;1.20;;;;;;;;;;4916106;29;20429;-73
2023/11/19 09:45:48;;;;;;;1.10;1.00;;;;;;;;;;4915620;29;20426;-73
2023/11/19 09:48:15;;;;;;;1.27;1.00;;;;;;;;;;4916576;29;20467;-73
2023/11/19 09:50:42;;;;;;;2.30;1.20;;;;;;;;;;4927606;29;20462;-73
2023/11/19 09:53:07;;;;;;;1.37;1.30;;;;;;;;;;4954731;29;20393;-73
2023/11/19 09:55:34;;;;;;;2.90;1.20;;;;;;;;;;4952202;29;20410;-73
2023/11/19 09:58:01;;;;;;;2.10;1.13;;;;;;;;;;4946818;29;20410;-73
2023/11/19 10:00:27;;;;;;;1.43;1.30;;;;;;;;;;4952083;29;20441;-73
2023/11/19 10:02:54;;;;;;;1.17;1.07;;;;;;;;;;4934373;29;20422;-73
2023/11/19 10:05:20;;;;;;;1.13;1.10;;;;;;;;;;4920490;29;20478;-73
2023/11/19 10:07:46;;;;;;;2.30;1.30;;;;;;;;;;4915548;29;20419;-73
2023/11/19 10:10:18;;;;;;;1.37;1.20;;;;;;;;;;4915472;29;20798;-73
2023/11/19 10:12:44;;;;;;;2.40;1.73;;;;;;;;;;4915395;29;20407;-73
2023/11/19 10:15:18;;;;;;;1.93;1.20;;;;;;;;;;4915558;29;20414;-73
2023/11/19 10:17:44;;;;;;;5.70;2.20;;;;;;;;;;4917277;29;20421;-73
2023/11/19 10:20:10;;;;;;;3.47;1.50;;;;;;;;;;4918923;29;20414;-73
2023/11/19 10:22:39;;;;;;;2.80;1.30;;;;;;;;;;4918869;29;20921;-73
2023/11/19 10:25:06;;;;;;;5.00;1.60;;;;;;;;;;4919146;29;20422;-73
2023/11/19 10:27:34;;;;;;;2.73;2.40;;;;;;;;;;4930522;29;20426;-73
2023/11/19 10:30:01;;;;;;;1.93;1.40;;;;;;;;;;4929609;29;20525;-73
2023/11/19 10:32:27;;;;;;;2.03;1.57;;;;;;;;;;4919084;29;20494;-73
2023/11/19 10:34:53;;;;;;;1.70;1.37;;;;;;;;;;4919130;29;20414;-73
2023/11/19 10:37:32;;;;;;;2.23;1.27;;;;;;;;;;4918730;29;20411;-73
2023/11/19 10:39:58;;;;;;;2.70;1.20;;;;;;;;;;4918823;29;20914;-74
2023/11/19 10:42:24;;;;;;;3.60;1.30;;;;;;;;;;4918965;29;20488;-73
2023/11/19 10:44:50;;;;;;;3.13;1.17;;;;;;;;;;4918730;29;20426;-74
2023/11/19 10:47:19;;;;;;;2.10;1.20;;;;;;;;;;4919719;29;20926;-73
2023/11/19 10:49:48;;;;;;;2.13;1.60;;;;;;;;;;4920909;29;20462;-73
2023/11/19 10:52:18;;;;;;;3.10;1.10;;;;;;;;;;4919157;29;20441;-74
2023/11/19 10:54:45;;;;;;;2.03;1.47;;;;;;;;;;4918540;29;20421;-73
2023/11/19 10:57:13;;;;;;;1.30;0.90;;;;;;;;;;4918751;29;20841;-73
2023/11/19 10:59:39;;;;;;;6.80;1.07;;;;;;;;;;4936075;29;20434;-74
2023/11/19 11:02:08;;;;;;;7.13;1.10;;;;;;;;;;4937173;29;20969;-74
2023/11/19 11:04:38;;;;;;;4.00;1.00;;;;;;;;;;4937040;29;20449;-74
2023/11/19 11:07:05;;;;;;;3.50;1.10;;;;;;;;;;4937019;29;20841;-73
2023/11/19 11:09:30;;;;;;;2.73;1.00;;;;;;;;;;4936905;29;20469;-73
2023/11/19 11:11:57;;;;;;;1.33;0.80;;;;;;;;;;4919874;29;20445;-73
2023/11/19 11:14:24;;;;;;;1.17;1.07;;;;;;;;;;4919633;29;20419;-73
2023/11/19 11:16:50;;;;;;;2.87;1.10;;;;;;;;;;4919903;29;20933;-73
2023/11/19 11:19:18;;;;;;;1.87;1.07;;;;;;;;;;4917976;29;20429;-74
2023/11/19 11:21:45;;;;;;;4.03;1.53;;;;;;;;;;4917843;29;20451;-73
2023/11/19 11:24:26;;;;;;;2.90;1.30;;;;;;;;;;4918696;29;20978;-73
2023/11/19 11:27:12;;;;;;;1.00;0.90;;;;;;;;;;4919937;29;20498;-73
2023/11/19 11:29:50;;;;;;;1.83;1.10;;;;;;;;;;4919620;29;20565;-73
2023/11/19 11:32:26;;;;;;;3.10;1.30;;;;;;;;;;4923867;29;20436;-73
2023/11/19 11:35:01;;;;;;;6.97;1.30;;;;;;;;;;4939016;29;20473;-73
2023/11/19 11:37:34;;;;;;;1.87;1.43;;;;;;;;;;4940329;29;20420;-73
2023/11/19 11:40:05;;;;;;;2.70;1.50;;;;;;;;;;4926564;29;20763;-73
2023/11/19 11:42:31;;;;;;;2.47;1.33;;;;;;;;;;4925850;29;20938;-73
2023/11/19 11:45:09;;;;;;;3.30;1.50;;;;;;;;;;4939407;29;20758;-73
2023/11/19 11:47:47;;;;;;;1.80;1.13;;;;;;;;;;4940771;29;20418;-74
2023/11/19 11:50:19;;;;;;;2.00;1.13;;;;;;;;;;4938707;29;20610;-74
2023/11/19 11:52:59;;;;;;;4.50;1.50;;;;;;;;;;4939004;29;20410;-74
2023/11/19 11:55:25;;;;;;;6.43;2.30;;;;;;;;;;4936824;29;20410;-74
2023/11/19 11:57:52;;;;;;;4.30;1.60;;;;;;;;;;4937885;29;20437;-74
2023/11/19 12:00:30;;;;;;;3.13;1.43;;;;;;;;;;4938481;29;20824;-74
2023/11/19 12:03:02;;;;;;;2.10;1.30;;;;;;;;;;4938353;29;20421;-74
2023/11/19 12:05:28;;;;;;;1.70;1.37;;;;;;;;;;4937469;29;20448;-74
2023/11/19 12:07:58;;;;;;;4.27;1.50;;;;;;;;;;4917717;29;20446;-74
2023/11/19 12:10:24;;;;;;;12.13;1.30;;;;;;;;;;4919620;28;20489;-73
2023/11/19 12:15:24;;;;;;;3.00;1.30;;;;;;;;;;4935310;29;20496;-70
2023/11/19 12:17:51;;;;;;;6.57;1.27;;;;;;;;;;4936400;29;20410;-70
2023/11/19 12:20:18;;;;;;;2.73;1.40;;;;;;;;;;4935977;29;20410;-71
2023/11/19 12:22:49;;;;;;;2.03;1.20;;;;;;;;;;4936808;29;20472;-71
2023/11/19 12:25:16;;;;;;;4.40;1.90;;;;;;;;;;4936096;29;20394;-71
2023/11/19 12:27:49;;;;;;;3.93;1.67;;;;;;;;;;4934596;29;20425;-71
2023/11/19 12:30:33;;;;;;;5.63;2.07;;;;;;;;;;4934247;29;20461;-71
2023/11/19 12:32:59;;;;;;;3.17;1.40;;;;;;;;;;4934325;29;20477;-71
2023/11/19 12:35:25;;;;;;;1.70;1.03;;;;;;;;;;4918656;29;20465;-71
2023/11/19 12:37:52;;;;;;;1.13;1.00;;;;;;;;;;4916728;29;20426;-71
2023/11/19 12:40:19;;;;;;;4.03;1.30;;;;;;;;;;4916119;29;20426;-71
2023/11/19 12:42:45;;;;;;;1.90;1.30;;;;;;;;;;4916557;29;20437;-71
2023/11/19 12:45:12;;;;;;;4.77;1.60;;;;;;;;;;4916358;29;20954;-71
2023/11/19 12:47:38;;;;;;;4.33;1.67;;;;;;;;;;4916345;29;20494;-71
2023/11/19 12:50:04;;;;;;;3.40;1.33;;;;;;;;;;4919706;29;20963;-71
2023/11/19 12:52:30;;;;;;;4.90;1.33;;;;;;;;;;4933614;29;20413;-71
2023/11/19 12:54:58;;;;;;;4.10;1.30;;;;;;;;;;4933485;29;20500;-71
2023/11/19 12:57:36;;;;;;;2.70;1.13;;;;;;;;;;4934710;29;20417;-70
2023/11/19 13:00:02;;;;;;;6.10;1.20;;;;;;;;;;4935019;29;20905;-70
2023/11/19 13:02:48;;;;;;;3.13;1.47;;;;;;;;;;4924967;29;20482;-71
2023/11/19 13:05:26;;;;;;;4.23;1.70;;;;;;;;;;4916140;29;20423;-70
2023/11/19 13:07:53;;;;;;;1.70;0.93;;;;;;;;;;4915960;29;20772;-70
2023/11/19 13:10:19;;;;;;;1.33;0.90;;;;;;;;;;4916082;29;20529;-70
2023/11/19 13:12:45;;;;;;;1.77;1.20;;;;;;;;;;4915074;29;20938;-70
2023/11/19 13:15:25;;;;;;;0.90;0.83;;;;;;;;;;4916166;29;20517;-70
2023/11/19 13:17:51;;;;;;;1.17;1.00;;;;;;;;;;4916145;29;20420;-70
2023/11/19 13:20:17;;;;;;;4.80;1.60;;;;;;;;;;4915952;29;20505;-70
2023/11/19 13:22:59;;;;;;;4.30;1.40;;;;;;;;;;4916046;29;20450;-70
2023/11/19 13:25:25;;;;;;;3.40;1.20;;;;;;;;;;4914522;29;20466;-70
2023/11/19 13:27:51;;;;;;;6.10;1.57;;;;;;;;;;4915910;29;20422;-70
2023/11/19 13:30:18;;;;;;;3.13;1.27;;;;;;;;;;4924708;29;20771;-70
2023/11/19 13:32:45;;;;;;;3.17;1.50;;;;;;;;;;4934774;29;20429;-71
2023/11/19 13:35:12;;;;;;;7.27;1.97;;;;;;;;;;4934570;29;20465;-70
2023/11/19 13:37:38;;;;;;;2.00;1.27;;;;;;;;;;4934973;29;20414;-70
2023/11/19 13:40:04;;;;;;;4.83;2.80;;;;;;;;;;4934834;29;20557;-70
2023/11/19 13:42:30;;;;;;;2.73;1.93;;;;;;;;;;4934901;29;20418;-70
2023/11/19 13:44:56;;;;;;;3.73;2.00;;;;;;;;;;4934597;29;20429;-70
2023/11/19 13:47:23;;;;;;;3.60;1.40;;;;;;;;;;4934807;29;20460;-70
2023/11/19 13:49:49;;;;;;;2.57;1.70;;;;;;;;;;4936034;29;20460;-70
2023/11/19 13:52:15;;;;;;;6.30;2.03;;;;;;;;;;4935414;29;20432;-70
2023/11/19 13:54:41;;;;;;;4.30;1.77;;;;;;;;;;4920261;29;20513;-70
2023/11/19 13:57:07;;;;;;;3.07;1.03;;;;;;;;;;4919690;29;20502;-71
2023/11/19 13:59:33;;;;;;;2.20;1.30;;;;;;;;;;4938723;29;20480;-71
2023/11/19 14:01:59;;;;;;;2.67;1.50;;;;;;;;;;4938246;29;20445;-71
2023/11/19 14:04:26;;;;;;;2.20;1.70;;;;;;;;;;4938310;29;20472;-71
2023/11/19 14:06:52;;;;;;;4.73;2.20;;;;;;;;;;4929199;29;20422;-70
2023/11/19 14:09:18;;;;;;;4.47;2.57;;;;;;;;;;4919355;29;20482;-71
2023/11/19 14:11:44;;;;;;;1.53;1.47;;;;;;;;;;4919206;29;20415;-71
2023/11/19 14:14:10;;;;;;;4.13;1.60;;;;;;;;;;4918630;29;20482;-71
2023/11/19 14:16:37;;;;;;;2.40;1.30;;;;;;;;;;4919525;29;20849;-70
2023/11/19 14:19:03;;;;;;;1.63;1.37;;;;;;;;;;4918623;29;20433;-70
2023/11/19 14:21:29;;;;;;;2.93;1.13;;;;;;;;;;4919022;29;20426;-71
2023/11/19 14:23:55;;;;;;;2.87;1.57;;;;;;;;;;4920158;29;20454;-71
2023/11/19 14:26:21;;;;;;;2.20;1.20;;;;;;;;;;4920422;29;20471;-70
2023/11/19 14:28:47;;;;;;;7.13;1.90;;;;;;;;;;4917963;29;20450;-71
2023/11/19 14:31:13;;;;;;;3.53;1.40;;;;;;;;;;4918722;29;20450;-70
2023/11/19 14:33:39;;;;;;;2.70;1.40;;;;;;;;;;4919471;29;20497;-70
2023/11/19 14:36:07;;;;;;;7.50;1.27;;;;;;;;;;4937865;29;20472;-70
2023/11/19 14:38:33;;;;;;;2.17;1.50;;;;;;;;;;4937954;29;20425;-71
2023/11/19 14:40:59;;;;;;;1.30;1.20;;;;;;;;;;4937922;29;20448;-70
2023/11/19 14:43:26;;;;;;;2.97;1.53;;;;;;;;;;4936951;29;20440;-70
2023/11/19 14:45:52;;;;;;;1.03;1.00;;;;;;;;;;4937012;29;20460;-70
2023/11/19 14:48:18;;;;;;;2.40;1.13;;;;;;;;;;4937350;29;20449;-70
2023/11/19 14:50:44;;;;;;;2.20;1.30;;;;;;;;;;4937374;29;20820;-70
2023/11/19 14:53:10;;;;;;;3.57;2.27;;;;;;;;;;4937126;29;20438;-70
2023/11/19 14:55:36;;;;;;;3.90;1.93;;;;;;;;;;4936915;29;20414;-70
2023/11/19 14:58:02;;;;;;;2.57;1.27;;;;;;;;;;4937349;29;20410;-70
2023/11/19 15:00:28;;;;;;;7.63;1.93;;;;;;;;;;4938197;29;20421;-70
2023/11/19 15:02:55;;;;;;;1.67;1.50;;;;;;;;;;4926459;29;20526;-70
2023/11/19 15:05:21;;;;;;;4.43;2.07;;;;;;;;;;4917659;29;20426;-70
2023/11/19 15:07:48;;;;;;;3.93;1.50;;;;;;;;;;4917837;29;20442;-70
2023/11/19 15:10:14;;;;;;;3.43;1.43;;;;;;;;;;4917763;29;20462;-70
2023/11/19 15:12:41;;;;;;;1.53;1.37;;;;;;;;;;4917823;29;20791;-70
2023/11/19 15:15:13;;;;;;;3.93;1.63;;;;;;;;;;4917495;29;21035;-70
2023/11/19 15:17:39;;;;;;;1.27;1.20;;;;;;;;;;4917683;29;20414;-71
2023/11/19 15:20:05;;;;;;;6.40;1.77;;;;;;;;;;4917567;29;20429;-71
2023/11/19 15:22:31;;;;;;;3.70;1.80;;;;;;;;;;4917669;29;20763;-71
2023/11/19 15:24:57;;;;;;;3.20;1.80;;;;;;;;;;4920198;29;20418;-71
2023/11/19 15:27:23;;;;;;;1.70;1.30;;;;;;;;;;4934811;29;20486;-71
2023/11/19 15:29:49;;;;;;;3.70;1.80;;;;;;;;;;4934803;29;20474;-71
2023/11/19 15:32:15;;;;;;;4.33;2.10;;;;;;;;;;4936747;29;20735;-70
2023/11/19 15:34:41;;;;;;;4.70;1.80;;;;;;;;;;4934304;29;20433;-70
2023/11/19 15:37:08;;;;;;;2.40;2.13;;;;;;;;;;4919493;29;20486;-71
2023/11/19 15:39:35;;;;;;;2.40;1.73;;;;;;;;;;4917130;29;20415;-71
2023/11/19 15:42:02;;;;;;;1.87;1.60;;;;;;;;;;4930683;29;20937;-72
2023/11/19 15:44:28;;;;;;;4.03;1.60;;;;;;;;;;4935638;29;20449;-71
2023/11/19 15:46:55;;;;;;;7.70;1.47;;;;;;;;;;4934590;29;20433;-71
2023/11/19 15:49:21;;;;;;;3.70;1.50;;;;;;;;;;4936139;28;20466;-71
2023/11/19 15:51:47;;;;;;;1.50;1.20;;;;;;;;;;4935993;29;20724;-71
2023/11/19 15:54:13;;;;;;;2.33;1.40;;;;;;;;;;4935877;29;20528;-71
2023/11/19 15:56:39;;;;;;;3.30;1.40;;;;;;;;;;4932875;29;20517;-71
2023/11/19 15:59:05;;;;;;;4.13;1.47;;;;;;;;;;4935344;29;20433;-74
2023/11/19 16:01:32;;;;;;;2.43;1.63;;;;;;;;;;4931321;29;20471;-71
2023/11/19 16:03:58;;;;;;;2.07;1.40;;;;;;;;;;4935896;29;20445;-71
2023/11/19 16:06:24;;;;;;;6.63;1.70;;;;;;;;;;4942062;29;20990;-70
2023/11/19 16:08:50;;;;;;;1.20;1.10;;;;;;;;;;4934487;29;20782;-70
2023/11/19 16:11:16;;;;;;;2.47;1.63;;;;;;;;;;4933856;29;20430;-71
2023/11/19 16:13:43;;;;;;;2.53;1.60;;;;;;;;;;4935265;29;20457;-71
2023/11/19 16:16:09;;;;;;;1.80;1.40;;;;;;;;;;4934729;28;20484;-71
2023/11/19 16:18:35;;;;;;;4.57;1.60;;;;;;;;;;4935345;29;20468;-71
2023/11/19 16:21:01;;;;;;;1.60;1.40;;;;;;;;;;4930833;29;20510;-71
2023/11/19 16:23:27;;;;;;;3.03;1.70;;;;;;;;;;4932281;29;20897;-71
2023/11/19 16:25:53;;;;;;;3.57;1.27;;;;;;;;;;4935143;29;20453;-71
2023/11/19 16:28:19;;;;;;;2.57;1.17;;;;;;;;;;4935192;29;20422;-71
2023/11/19 16:30:45;;;;;;;2.93;1.40;;;;;;;;;;4933602;29;20472;-71
2023/11/19 16:33:11;;;;;;;3.10;1.20;;;;;;;;;;4934587;29;20905;-71
2023/11/19 16:35:37;;;;;;;1.70;1.30;;;;;;;;;;4930010;29;20855;-71
2023/11/19 16:38:06;;;;;;;3.43;1.50;;;;;;;;;;4934942;29;20429;-72
2023/11/19 16:40:32;;;;;;;2.10;1.67;;;;;;;;;;4934604;29;20797;-71
2023/11/19 16:42:58;;;;;;;5.43;1.83;;;;;;;;;;4935019;28;20449;-71
2023/11/19 16:45:24;;;;;;;3.73;2.47;;;;;;;;;;4934871;29;20429;-71
2023/11/19 16:47:51;;;;;;;4.00;2.83;;;;;;;;;;4930725;29;20417;-71
2023/11/19 16:50:17;;;;;;;5.67;2.37;;;;;;;;;;4928477;29;20465;-71
2023/11/19 16:52:43;;;;;;;2.20;1.70;;;;;;;;;;4934815;28;20441;-71
2023/11/19 16:55:12;;;;;;;7.57;1.83;;;;;;;;;;4934896;28;20810;-75
2023/11/19 16:57:39;;;;;;;3.00;2.13;;;;;;;;;;4942752;29;20507;-72
2023/11/19 17:00:05;;;;;;;14.47;5.47;;;;;;;;;;4939225;29;20469;-72
2023/11/19 17:02:32;;;;;;;18.37;7.67;;;;;;;;;;4938453;29;20421;-71
2023/11/19 17:04:58;;;;;;;18.70;7.73;;;;;;;;;;4935459;29;20418;-71
2023/11/19 17:07:25;;;;;;;21.07;8.87;;;;;;;;;;4934392;29;20421;-71
2023/11/19 17:09:51;;;;;;;13.80;5.87;;;;;;;;;;4934841;29;20469;-72
2023/11/19 17:12:17;;;;;;;22.57;10.27;;;;;;;;;;4933160;29;20453;-71
2023/11/19 17:14:43;;;;;;;22.27;9.10;;;;;;;;;;4933600;29;20465;-71
2023/11/19 17:17:09;;;;;;;18.60;7.50;;;;;;;;;;4930819;29;20421;-71
2023/11/19 17:19:35;;;;;;;14.00;6.97;;;;;;;;;;4933094;29;20445;-71
2023/11/19 17:22:02;;;;;;;13.33;6.30;;;;;;;;;;4934721;29;20953;-72
2023/11/19 17:24:28;;;;;;;13.43;5.80;;;;;;;;;;4933711;29;20449;-71
2023/11/19 17:26:54;;;;;;;18.37;7.67;;;;;;;;;;4945253;28;20432;-71
2023/11/19 17:29:21;;;;;;;22.63;7.13;;;;;;;;;;4953749;29;20464;-71
2023/11/19 17:31:47;;;;;;;13.30;6.67;;;;;;;;;;4952926;28;20441;-71
2023/11/19 17:34:13;;;;;;;16.80;7.70;;;;;;;;;;4953623;29;20429;-71
2023/11/19 17:36:39;;;;;;;17.20;7.40;;;;;;;;;;4916656;29;20461;-71
2023/11/19 17:39:05;;;;;;;14.90;7.10;;;;;;;;;;4914576;29;20422;-71
2023/11/19 17:41:31;;;;;;;13.70;6.70;;;;;;;;;;4915839;29;20426;-71
2023/11/19 17:43:57;;;;;;;15.03;7.00;;;;;;;;;;4916026;29;20494;-71
2023/11/19 17:46:23;;;;;;;23.03;8.00;;;;;;;;;;4917960;29;20423;-71
2023/11/19 17:48:49;;;;;;;24.50;9.00;;;;;;;;;;4933129;29;20465;-71
2023/11/19 17:51:17;;;;;;;12.53;5.30;;;;;;;;;;4934691;29;20549;-71
2023/11/19 17:53:43;;;;;;;14.27;6.83;;;;;;;;;;4933221;29;20441;-72
2023/11/19 17:56:09;;;;;;;8.90;4.43;;;;;;;;;;4920236;29;20900;-71
2023/11/19 17:58:36;;;;;;;6.33;3.50;;;;;;;;;;4919662;29;20869;-71
2023/11/19 18:01:03;;;;;;;9.10;3.30;;;;;;;;;;4934638;29;20413;-71
2023/11/19 18:03:29;;;;;;;6.27;3.00;;;;;;;;;;4933078;29;20449;-71
2023/11/19 18:05:55;;;;;;;3.00;2.37;;;;;;;;;;4934472;29;20449;-71
2023/11/19 18:08:23;;;;;;;7.33;2.37;;;;;;;;;;4935959;29;20448;-72
2023/11/19 18:10:49;;;;;;;4.40;2.03;;;;;;;;;;4926517;29;20592;-71
2023/11/19 18:13:19;;;;;;;6.90;2.73;;;;;;;;;;4943072;23;20407;-77
2023/11/19 18:15:45;;;;;;;4.00;2.27;;;;;;;;;;4952762;29;20865;-75
2023/11/19 18:18:12;;;;;;;4.10;2.40;;;;;;;;;;4954033;29;20919;-76
2023/11/19 18:20:38;;;;;;;5.70;3.30;;;;;;;;;;4954122;29;20416;-76
2023/11/19 18:23:04;;;;;;;3.30;2.50;;;;;;;;;;4945247;29;20852;-76
2023/11/19 18:25:31;;;;;;;10.33;2.63;;;;;;;;;;4916182;29;20422;-77
2023/11/19 18:27:58;;;;;;;4.40;2.20;;;;;;;;;;4916277;29;20540;-76
2023/11/19 18:30:23;;;;;;;4.00;2.33;;;;;;;;;;4917191;29;20510;-77
2023/11/19 18:32:50;;;;;;;5.27;2.33;;;;;;;;;;4915796;29;20584;-75
2023/11/19 18:35:23;;;;;;;4.70;2.27;;;;;;;;;;4929452;29;20445;-77
2023/11/19 18:37:49;;;;;;;4.00;2.07;;;;;;;;;;4934902;29;20445;-75
2023/11/19 18:40:18;;;;;;;6.20;2.30;;;;;;;;;;4940053;29;20450;-77
2023/11/19 18:42:44;;;;;;;8.30;3.10;;;;;;;;;;4950210;29;20418;-77
2023/11/19 18:45:11;;;;;;;5.60;2.93;;;;;;;;;;4934262;29;20486;-76
2023/11/19 18:47:37;;;;;;;8.23;3.83;;;;;;;;;;4936119;29;20901;-79
2023/11/19 18:50:04;;;;;;;7.73;3.90;;;;;;;;;;4939804;29;20566;-77
2023/11/19 18:52:31;;;;;;;10.53;2.97;;;;;;;;;;4936970;29;20452;-78
2023/11/19 18:54:58;;;;;;;4.70;3.17;;;;;;;;;;4942407;28;20813;-78
2023/11/19 18:57:24;;;;;;;4.30;2.87;;;;;;;;;;4939673;29;20425;-79
2023/11/19 18:59:50;;;;;;;5.40;3.30;;;;;;;;;;4943018;29;20476;-75
2023/11/19 19:02:16;;;;;;;8.47;2.80;;;;;;;;;;4935868;29;20457;-75
2023/11/19 19:04:42;;;;;;;8.03;2.73;;;;;;;;;;4956103;28;20449;-77
2023/11/19 19:07:08;;;;;;;4.47;2.30;;;;;;;;;;4943244;29;20582;-75
2023/11/19 19:09:34;;;;;;;6.57;2.57;;;;;;;;;;4934527;29;20470;-76
2023/11/19 19:12:01;;;;;;;3.97;2.43;;;;;;;;;;4949242;29;20417;-74
2023/11/19 19:14:27;;;;;;;4.00;1.60;;;;;;;;;;4946491;29;20463;-76
2023/11/19 19:16:53;;;;;;;8.33;1.70;;;;;;;;;;4954346;29;20493;-77
2023/11/19 19:19:19;;;;;;;4.23;2.10;;;;;;;;;;4953412;29;20575;-78
2023/11/19 19:21:46;;;;;;;6.47;2.40;;;;;;;;;;4943162;29;20460;-76
2023/11/19 19:24:14;;;;;;;4.07;1.83;;;;;;;;;;4935800;29;20449;-76
2023/11/19 19:26:41;;;;;;;6.67;2.57;;;;;;;;;;4933897;29;20428;-77
2023/11/19 19:29:07;;;;;;;5.50;2.57;;;;;;;;;;4936387;29;20528;-73
2023/11/19 19:31:33;;;;;;;6.47;2.80;;;;;;;;;;4930502;29;20418;-74
2023/11/19 19:34:00;;;;;;;7.73;2.37;;;;;;;;;;4937288;29;20446;-75
2023/11/19 19:36:28;;;;;;;7.20;2.07;;;;;;;;;;4929999;29;20421;-75
2023/11/19 19:38:54;;;;;;;7.57;2.10;;;;;;;;;;4939737;29;20960;-76
2023/11/19 19:41:20;;;;;;;9.90;2.47;;;;;;;;;;4949625;29;20838;-76
2023/11/19 19:43:46;;;;;;;4.77;2.40;;;;;;;;;;4950060;29;20529;-76
2023/11/19 19:46:12;;;;;;;5.00;2.47;;;;;;;;;;4935241;29;20420;-75
2023/11/19 19:48:39;;;;;;;7.07;2.40;;;;;;;;;;4936829;29;20410;-76
2023/11/19 19:51:07;;;;;;;9.53;3.87;;;;;;;;;;4929954;29;20529;-76
2023/11/19 19:53:33;;;;;;;7.17;3.33;;;;;;;;;;4916492;29;20455;-76
2023/11/19 19:55:59;;;;;;;5.83;2.33;;;;;;;;;;4925602;29;20947;-76
2023/11/19 19:58:25;;;;;;;8.53;2.30;;;;;;;;;;4937008;29;20906;-78
2023/11/19 20:00:54;;;;;;;6.00;2.53;;;;;;;;;;4941921;29;20526;-76
2023/11/19 20:03:20;;;;;;;7.13;2.77;;;;;;;;;;4922580;29;20445;-76
2023/11/19 20:05:46;;;;;;;4.77;2.43;;;;;;;;;;4926973;29;20425;-76
2023/11/19 20:08:13;;;;;;;11.30;3.20;;;;;;;;;;4935579;29;20428;-76
2023/11/19 20:10:39;;;;;;;6.53;2.80;;;;;;;;;;4936723;29;20560;-76
2023/11/19 20:13:12;;;;;;;11.60;3.10;;;;;;;;;;4930241;29;20450;-76
2023/11/19 20:15:38;;;;;;;3.47;2.37;;;;;;;;;;4930631;29;20414;-78
2023/11/19 20:18:05;;;;;;;8.80;2.40;;;;;;;;;;4938786;29;20901;-76
2023/11/19 20:20:32;;;;;;;7.40;2.63;;;;;;;;;;4955827;28;20786;-76
2023/11/19 20:22:58;;;;;;;7.17;2.60;;;;;;;;;;4952222;28;20444;-77
2023/11/19 20:25:24;;;;;;;11.00;3.20;;;;;;;;;;4917724;29;20477;-77
2023/11/19 20:27:50;;;;;;;5.50;2.50;;;;;;;;;;4923893;29;20453;-76
2023/11/19 20:30:17;;;;;;;10.23;2.90;;;;;;;;;;4931652;29;20477;-76
2023/11/19 20:32:43;;;;;;;9.83;2.73;;;;;;;;;;4962701;29;20393;-76
2023/11/19 20:35:09;;;;;;;8.23;2.90;;;;;;;;;;4978802;29;20468;-77
2023/11/19 20:37:36;;;;;;;14.80;4.43;;;;;;;;;;4960766;29;20461;-77
2023/11/19 20:40:04;;;;;;;16.50;3.07;;;;;;;;;;4939895;29;20417;-77
2023/11/19 20:42:30;;;;;;;7.10;2.50;;;;;;;;;;4936474;29;20410;-76